createdAt,value
2023-01-30T00:01:18.661Z,8.80
2023-01-30T00:03:46.727Z,10.57
2023-01-30T00:06:14.547Z,8.07
2023-01-30T00:08:42.324Z,9.80
2023-01-30T00:11:12.525Z,10.00
2023-01-30T00:13:41.508Z,7.35
2023-01-30T00:16:09.964Z,9.02
2023-01-30T00:18:38.543Z,8.50
2023-01-30T00:21:08.500Z,7.07
2023-01-30T00:23:37.449Z,7.82
2023-01-30T00:26:06.086Z,6.03
2023-01-30T00:28:33.973Z,7.35
2023-01-30T00:31:01.642Z,7.05
2023-01-30T00:33:30.123Z,7.70
2023-01-30T00:35:58.250Z,8.10
2023-01-30T00:38:25.944Z,7.90
2023-01-30T00:40:53.639Z,7.45
2023-01-30T00:43:40.185Z,9.52
2023-01-30T00:46:55.922Z,7.32
2023-01-30T00:49:23.440Z,7.15
2023-01-30T00:51:51.748Z,7.07
2023-01-30T00:54:22.160Z,6.15
2023-01-30T00:56:49.718Z,6.15
2023-01-30T00:59:17.359Z,7.38
2023-01-30T01:01:46.078Z,5.57
2023-01-30T01:04:14.362Z,6.45
2023-01-30T01:06:41.987Z,5.43
2023-01-30T01:09:09.511Z,5.38
2023-01-30T01:11:37.161Z,4.38
2023-01-30T01:14:06.353Z,5.30
2023-01-30T01:16:35.586Z,5.03
2023-01-30T01:19:04.016Z,4.22
2023-01-30T01:21:31.696Z,4.18
2023-01-30T01:24:00.685Z,6.00
2023-01-30T01:26:28.415Z,4.97
2023-01-30T01:28:57.226Z,3.97
2023-01-30T01:31:25.713Z,3.70
2023-01-30T01:33:55.639Z,3.97
2023-01-30T01:36:51.583Z,4.82
2023-01-30T01:39:11.023Z,4.05
2023-01-30T01:41:38.684Z,3.08
2023-01-30T01:44:11.922Z,3.78
2023-01-30T01:46:51.823Z,3.42
2023-01-30T01:49:34.864Z,3.25
2023-01-30T01:52:11.529Z,3.75
2023-01-30T01:54:58.221Z,3.80
2023-01-30T01:57:43.537Z,4.40
2023-01-30T02:00:12.823Z,5.15
2023-01-30T02:02:42.894Z,4.10
2023-01-30T02:05:14.193Z,2.72
2023-01-30T02:08:02.600Z,3.22
2023-01-30T02:10:48.561Z,3.17
2023-01-30T02:13:16.203Z,3.70
2023-01-30T02:15:43.857Z,3.53
2023-01-30T02:18:12.926Z,2.47
2023-01-30T02:20:46.527Z,3.47
2023-01-30T02:23:23.037Z,2.95
2023-01-30T02:26:15.690Z,2.28
2023-01-30T02:29:31.503Z,2.70
2023-01-30T02:32:22.987Z,3.05
2023-01-30T02:35:05.589Z,2.88
2023-01-30T02:38:02.218Z,3.22
2023-01-30T02:40:49.910Z,2.30
2023-01-30T02:43:24.737Z,3.22
2023-01-30T02:46:09.749Z,2.53
2023-01-30T02:48:46.216Z,3.10
2023-01-30T02:51:29.240Z,2.63
2023-01-30T02:53:57.670Z,2.85
2023-01-30T02:56:26.102Z,2.47
2023-01-30T02:59:08.493Z,2.58
2023-01-30T03:01:41.864Z,2.58
2023-01-30T03:04:35.675Z,2.10
2023-01-30T03:07:18.114Z,2.47
2023-01-30T03:10:16.291Z,3.25
2023-01-30T03:13:03.569Z,2.70
2023-01-30T03:15:36.411Z,1.70
2023-01-30T03:18:05.832Z,2.65
2023-01-30T03:20:38.819Z,2.50
2023-01-30T03:23:06.833Z,3.00
2023-01-30T03:25:38.231Z,2.83
2023-01-30T03:28:07.106Z,2.97
2023-01-30T03:30:34.716Z,2.70
2023-01-30T03:33:08.382Z,2.42
2023-01-30T03:35:37.434Z,2.53
2023-01-30T03:38:05.873Z,2.58
2023-01-30T03:40:33.444Z,2.00
2023-01-30T03:43:00.982Z,2.05
2023-01-30T03:45:28.731Z,2.65
2023-01-30T03:47:56.283Z,2.45
2023-01-30T03:50:23.729Z,2.30
2023-01-30T03:52:51.066Z,2.38
2023-01-30T03:55:20.908Z,1.80
2023-01-30T03:57:48.495Z,2.58
2023-01-30T04:00:18.435Z,1.25
2023-01-30T04:02:49.049Z,2.65
2023-01-30T04:05:19.043Z,2.25
2023-01-30T04:07:51.709Z,2.95
2023-01-30T04:10:20.056Z,2.10
2023-01-30T04:12:47.884Z,1.85
2023-01-30T04:15:15.503Z,2.03
2023-01-30T04:18:21.587Z,1.35
2023-01-30T04:20:51.761Z,1.83
2023-01-30T04:23:25.308Z,1.70
2023-01-30T04:25:52.733Z,1.77
2023-01-30T04:28:22.248Z,2.78
2023-01-30T04:30:49.682Z,1.88
2023-01-30T04:33:41.407Z,2.08
2023-01-30T04:36:10.753Z,2.25
2023-01-30T04:38:38.954Z,1.90
2023-01-30T04:41:07.733Z,1.63
2023-01-30T04:43:38.239Z,1.88
2023-01-30T04:46:11.470Z,2.35
2023-01-30T04:48:39.468Z,2.13
2023-01-30T04:51:07.124Z,1.48
2023-01-30T04:53:34.929Z,1.52
2023-01-30T04:56:02.468Z,2.00
2023-01-30T04:58:29.855Z,1.48
2023-01-30T05:01:16.187Z,1.95
2023-01-30T05:03:44.398Z,1.23
2023-01-30T05:06:11.826Z,1.20
2023-01-30T05:08:39.200Z,2.00
2023-01-30T05:11:07.030Z,1.50
2023-01-30T05:13:34.409Z,1.23
2023-01-30T05:16:01.788Z,1.08
2023-01-30T05:18:29.216Z,1.33
2023-01-30T05:21:07.200Z,1.52
2023-01-30T05:23:35.037Z,1.33
2023-01-30T05:26:02.948Z,1.73
2023-01-30T05:28:30.723Z,1.63
2023-01-30T05:31:02.719Z,1.48
2023-01-30T05:33:30.126Z,1.63
2023-01-30T05:35:57.825Z,1.50
2023-01-30T05:38:25.949Z,2.05
2023-01-30T05:41:01.409Z,2.33
2023-01-30T05:43:29.510Z,1.90
2023-01-30T05:45:58.832Z,1.50
2023-01-30T05:48:26.776Z,2.35
2023-01-30T05:50:55.687Z,1.08
2023-01-30T05:53:25.008Z,2.33
2023-01-30T05:56:00.387Z,0.98
2023-01-30T05:58:28.591Z,2.83
2023-01-30T06:01:03.711Z,1.58
2023-01-30T06:03:31.524Z,1.60
2023-01-30T06:06:01.183Z,1.40
2023-01-30T06:08:28.712Z,2.00
2023-01-30T06:11:08.098Z,2.38
2023-01-30T06:13:36.281Z,1.17
2023-01-30T06:16:03.956Z,1.38
2023-01-30T06:18:31.377Z,2.17
2023-01-30T06:20:59.299Z,1.52
2023-01-30T06:23:26.617Z,1.40
2023-01-30T06:25:55.861Z,2.25
2023-01-30T06:28:24.656Z,1.83
2023-01-30T06:30:53.434Z,1.40
2023-01-30T06:33:21.170Z,1.92
2023-01-30T06:35:50.230Z,1.60
2023-01-30T06:38:17.880Z,2.03
2023-01-30T06:40:47.099Z,2.75
2023-01-30T06:43:14.842Z,1.65
2023-01-30T06:45:42.909Z,1.98
2023-01-30T06:48:12.959Z,1.75
2023-01-30T06:50:40.343Z,1.38
2023-01-30T06:53:08.653Z,1.65
2023-01-30T06:55:36.821Z,2.03
2023-01-30T06:58:10.028Z,2.15
2023-01-30T07:00:40.152Z,1.67
2023-01-30T07:03:13.760Z,2.65
2023-01-30T07:05:42.541Z,2.60
2023-01-30T07:08:10.427Z,1.15
2023-01-30T07:10:38.550Z,1.67
2023-01-30T07:13:06.771Z,1.50
2023-01-30T07:15:34.415Z,1.50
2023-01-30T07:18:01.997Z,1.70
2023-01-30T07:20:31.317Z,2.33
2023-01-30T07:23:00.382Z,2.00
2023-01-30T07:25:30.628Z,1.65
2023-01-30T07:28:00.204Z,2.10
2023-01-30T07:30:29.661Z,1.55
2023-01-30T07:32:58.873Z,1.73
2023-01-30T07:35:32.217Z,1.10
2023-01-30T07:38:05.488Z,1.58
2023-01-30T07:40:34.996Z,2.00
2023-01-30T07:43:11.729Z,2.25
2023-01-30T07:45:44.890Z,1.33
2023-01-30T07:48:22.997Z,2.20
2023-01-30T07:50:57.075Z,2.08
2023-01-30T07:53:28.563Z,2.33
2023-01-30T07:56:24.157Z,1.92
2023-01-30T07:58:58.656Z,1.58
2023-01-30T08:04:20.064Z,1.42
2023-01-30T08:06:48.195Z,1.95
2023-01-30T08:09:15.971Z,1.05
2023-01-30T08:11:46.317Z,1.38
2023-01-30T08:14:13.948Z,2.05
2023-01-30T08:16:42.865Z,1.42
2023-01-30T08:19:10.889Z,1.83
2023-01-30T08:21:49.253Z,1.50
2023-01-30T08:31:35.554Z,2.05
2023-01-30T08:34:03.359Z,1.40
2023-01-30T08:36:40.891Z,1.35
2023-01-30T08:39:11.524Z,1.42
2023-01-30T08:41:53.634Z,1.38
2023-01-30T08:47:05.445Z,1.27
2023-01-30T08:49:38.017Z,2.20
2023-01-30T08:52:05.667Z,2.55
2023-01-30T08:54:42.339Z,1.02
2023-01-30T08:57:18.821Z,2.10
2023-01-30T09:02:49.670Z,0.98
2023-01-30T09:05:26.252Z,1.85
2023-01-30T09:08:03.237Z,1.23
2023-01-30T09:10:33.352Z,1.73
2023-01-30T09:13:05.607Z,1.40
2023-01-30T09:15:36.972Z,2.03
2023-01-30T09:18:43.228Z,1.65
2023-01-30T09:21:17.200Z,1.20
2023-01-30T09:23:52.481Z,1.20
2023-01-30T09:26:20.372Z,1.85
2023-01-30T09:28:56.661Z,2.40
2023-01-30T09:31:29.378Z,1.92
2023-01-30T09:34:00.127Z,1.90
2023-01-30T09:36:35.330Z,1.60
2023-01-30T09:39:14.825Z,1.20
2023-01-30T09:42:11.686Z,1.88
2023-01-30T09:44:48.258Z,1.73
2023-01-30T09:47:33.602Z,2.05
2023-01-30T09:50:36.444Z,1.88
2023-01-30T09:53:20.340Z,1.40
2023-01-30T09:55:53.000Z,1.70
2023-01-30T09:58:28.234Z,1.17
2023-01-30T10:01:05.103Z,1.98
2023-01-30T10:04:01.600Z,1.67
2023-01-30T10:06:32.216Z,1.23
2023-01-30T10:09:17.961Z,1.63
2023-01-30T10:11:56.107Z,1.38
2023-01-30T10:14:42.169Z,1.98
2023-01-30T10:17:19.401Z,0.90
2023-01-30T10:20:26.948Z,1.52
2023-01-30T10:23:12.645Z,2.08
2023-01-30T10:26:05.531Z,2.70
2023-01-30T10:28:40.677Z,1.20
2023-01-30T10:31:19.342Z,1.67
2023-01-30T10:34:13.437Z,2.25
2023-01-30T10:37:07.864Z,1.38
2023-01-30T10:40:28.351Z,1.30
2023-01-30T10:43:32.265Z,2.17
2023-01-30T10:46:47.551Z,2.63
2023-01-30T10:49:39.478Z,1.10
2023-01-30T10:52:21.403Z,2.90
2023-01-30T10:54:58.423Z,1.65
2023-01-30T10:57:31.007Z,1.27
2023-01-30T11:00:11.058Z,2.05
2023-01-30T11:02:55.290Z,1.40
2023-01-30T11:05:26.132Z,1.93
2023-01-30T11:07:54.047Z,1.40
2023-01-30T11:10:24.798Z,2.05
2023-01-30T11:13:33.841Z,1.67
2023-01-30T11:16:06.778Z,2.58
2023-01-30T11:19:18.691Z,2.20
2023-01-30T11:21:43.924Z,1.08
2023-01-30T11:24:21.033Z,2.65
2023-01-30T11:26:53.202Z,1.90
2023-01-30T11:29:33.255Z,1.65
2023-01-30T11:32:25.947Z,1.98
2023-01-30T11:35:08.904Z,1.98
2023-01-30T11:37:38.851Z,2.05
2023-01-30T11:40:38.481Z,2.15
2023-01-30T11:43:14.416Z,2.13
2023-01-30T11:45:50.330Z,2.03
2023-01-30T11:48:33.260Z,1.90
2023-01-30T11:51:14.141Z,2.95
2023-01-30T11:53:55.842Z,2.20
2023-01-30T11:56:32.618Z,1.80
2023-01-30T11:59:06.287Z,2.45
2023-01-30T12:01:37.210Z,2.55
2023-01-30T12:04:09.280Z,1.27
2023-01-30T12:06:42.414Z,1.92
2023-01-30T12:09:32.735Z,2.25
2023-01-30T12:12:00.392Z,2.28
2023-01-30T12:14:34.811Z,1.88
2023-01-30T12:17:12.798Z,2.53
2023-01-30T12:20:23.613Z,1.70
2023-01-30T12:23:24.007Z,1.58
2023-01-30T12:26:13.681Z,1.58
2023-01-30T12:28:44.060Z,1.85
2023-01-30T12:31:25.594Z,1.77
2023-01-30T12:33:55.410Z,2.03
2023-01-30T12:36:43.647Z,1.98
2023-01-30T12:39:23.113Z,2.30
2023-01-30T12:42:01.336Z,1.95
2023-01-30T12:44:31.877Z,1.75
2023-01-30T12:47:34.640Z,2.33
2023-01-30T12:50:42.260Z,1.77
2023-01-30T12:53:21.296Z,2.08
2023-01-30T12:56:26.285Z,2.88
2023-01-30T12:59:16.658Z,2.17
2023-01-30T13:02:17.055Z,1.90
2023-01-30T13:05:28.355Z,2.03
2023-01-30T13:08:02.800Z,2.08
2023-01-30T13:10:53.261Z,2.42
2023-01-30T13:13:20.849Z,1.80
2023-01-30T13:16:13.625Z,2.22
2023-01-30T13:19:00.327Z,1.88
2023-01-30T13:22:05.607Z,1.88
2023-01-30T13:24:43.945Z,2.20
2023-01-30T13:27:19.992Z,2.20
2023-01-30T13:29:49.306Z,2.22
2023-01-30T13:32:30.744Z,1.90
2023-01-30T13:35:04.364Z,2.00
2023-01-30T13:37:36.799Z,2.70
2023-01-30T13:40:16.992Z,1.55
2023-01-30T13:42:59.258Z,2.08
2023-01-30T13:45:31.029Z,1.25
2023-01-30T13:48:11.094Z,2.38
2023-01-30T13:51:17.918Z,2.83
2023-01-30T13:54:20.713Z,2.13
2023-01-30T13:57:14.307Z,2.00
2023-01-30T14:00:13.019Z,1.02
2023-01-30T14:03:03.523Z,1.38
2023-01-30T14:05:53.008Z,1.73
2023-01-30T14:08:23.647Z,1.60
2023-01-30T14:10:57.752Z,2.75
2023-01-30T14:13:27.595Z,1.77
2023-01-30T14:16:01.413Z,1.80
2023-01-30T14:18:36.227Z,2.07
2023-01-30T14:21:21.459Z,1.77
2023-01-30T14:26:52.462Z,2.00
2023-01-30T14:29:38.559Z,2.28
2023-01-30T14:32:13.024Z,1.75
2023-01-30T14:35:01.148Z,2.35
2023-01-30T14:37:36.006Z,1.70
2023-01-30T14:40:27.529Z,1.92
2023-01-30T14:43:13.430Z,3.17
2023-01-30T14:45:54.797Z,3.03
2023-01-30T14:48:29.959Z,1.63
2023-01-30T14:51:34.682Z,1.65
2023-01-30T14:54:17.178Z,1.88
2023-01-30T14:56:54.302Z,1.85
2023-01-30T14:59:54.134Z,2.65
2023-01-30T15:02:43.468Z,2.40
2023-01-30T15:05:21.409Z,2.15
2023-01-30T15:08:16.867Z,1.38
2023-01-30T15:11:32.135Z,1.52
2023-01-30T15:14:13.028Z,2.13
2023-01-30T15:16:58.071Z,1.52
2023-01-30T15:20:13.274Z,1.40
2023-01-30T15:23:16.958Z,2.38
2023-01-30T15:25:53.939Z,2.53
2023-01-30T15:28:31.545Z,1.60
2023-01-30T15:31:08.171Z,2.08
2023-01-30T15:33:54.005Z,2.13
2023-01-30T15:36:25.570Z,2.63
2023-01-30T15:38:58.574Z,1.77
2023-01-30T15:41:26.923Z,2.10
2023-01-30T15:44:16.425Z,3.05
2023-01-30T15:47:02.175Z,2.13
2023-01-30T15:49:59.423Z,1.38
2023-01-30T15:52:37.538Z,2.17
2023-01-30T15:55:05.642Z,1.33
2023-01-30T15:57:36.562Z,1.70
2023-01-30T16:00:07.376Z,2.38
2023-01-30T16:02:43.326Z,2.05
2023-01-30T16:05:18.127Z,2.38
2023-01-30T16:07:47.781Z,2.03
2023-01-30T16:10:27.373Z,2.22
2023-01-30T16:12:57.641Z,1.55
2023-01-30T16:15:34.448Z,1.63
2023-01-30T16:18:36.065Z,1.08
2023-01-30T16:21:07.551Z,1.77
2023-01-30T16:23:56.391Z,1.80
2023-01-30T16:26:24.443Z,1.83
2023-01-30T16:29:06.728Z,1.60
2023-01-30T16:31:38.076Z,1.90
2023-01-30T16:34:06.052Z,1.00
2023-01-30T16:36:40.107Z,1.23
2023-01-30T16:39:33.369Z,1.60
2023-01-30T16:42:03.705Z,1.67
2023-01-30T16:44:32.774Z,1.55
2023-01-30T16:47:22.014Z,1.98
2023-01-30T16:49:50.477Z,2.00
2023-01-30T16:52:25.715Z,1.25
2023-01-30T16:54:56.987Z,1.35
2023-01-30T16:57:36.223Z,1.98
2023-01-30T17:00:09.825Z,1.70
2023-01-30T17:02:49.501Z,1.60
2023-01-30T17:05:26.783Z,2.08
2023-01-30T17:07:56.275Z,2.53
2023-01-30T17:10:41.970Z,3.20
2023-01-30T17:13:37.647Z,1.50
2023-01-30T17:16:36.188Z,1.80
2023-01-30T17:19:05.266Z,3.20
2023-01-30T17:21:50.459Z,1.63
2023-01-30T17:26:50.176Z,1.23
2023-01-30T17:29:40.959Z,1.58
2023-01-30T17:32:12.723Z,1.38
2023-01-30T17:34:41.417Z,1.83
2023-01-30T17:37:23.466Z,1.98
2023-01-30T17:39:56.731Z,1.75
2023-01-30T17:42:24.462Z,1.60
2023-01-30T17:44:52.483Z,2.28
2023-01-30T17:47:22.582Z,2.03
2023-01-30T17:49:51.244Z,1.90
2023-01-30T17:52:19.140Z,2.05
2023-01-30T17:54:46.779Z,2.33
2023-01-30T17:57:17.511Z,1.98
2023-01-30T17:59:45.108Z,2.10
2023-01-30T18:02:15.064Z,3.17
2023-01-30T18:04:42.756Z,2.63
2023-01-30T18:07:15.685Z,2.55
2023-01-30T18:09:43.716Z,2.95
2023-01-30T18:12:11.401Z,2.45
2023-01-30T18:14:39.103Z,1.52
2023-01-30T18:17:10.105Z,2.80
2023-01-30T18:19:37.788Z,2.85
2023-01-30T18:22:05.811Z,2.75
2023-01-30T18:24:34.506Z,1.80
2023-01-30T18:27:02.092Z,2.45
2023-01-30T18:29:29.948Z,1.83
2023-01-30T18:32:03.543Z,2.50
2023-01-30T18:34:31.862Z,2.95
2023-01-30T18:37:02.100Z,2.60
2023-01-30T18:39:32.243Z,2.45
2023-01-30T18:42:05.257Z,2.03
2023-01-30T18:44:35.810Z,2.60
2023-01-30T18:47:06.571Z,2.47
2023-01-30T18:49:34.420Z,1.95
2023-01-30T18:52:05.300Z,2.40
2023-01-30T18:54:37.264Z,3.72
2023-01-30T18:57:13.870Z,1.90
2023-01-30T18:59:41.711Z,2.13
2023-01-30T19:02:16.759Z,2.53
2023-01-30T19:04:44.426Z,2.50
2023-01-30T19:07:12.144Z,2.63
2023-01-30T19:09:39.757Z,1.80
2023-01-30T19:12:33.974Z,1.70
2023-01-30T19:15:01.702Z,2.25
2023-01-30T19:17:29.579Z,1.98
2023-01-30T19:19:57.543Z,1.88
2023-01-30T19:22:27.650Z,2.33
2023-01-30T19:24:57.781Z,1.95
2023-01-30T19:27:26.051Z,1.42
2023-01-30T19:29:53.721Z,1.33
2023-01-30T19:32:22.549Z,2.10
2023-01-30T19:34:52.474Z,0.77
2023-01-30T19:37:20.083Z,1.70
2023-01-30T19:39:47.769Z,1.33
2023-01-30T19:42:16.484Z,2.20
2023-01-30T19:44:44.085Z,2.05
2023-01-30T19:47:13.022Z,1.48
2023-01-30T19:49:42.387Z,1.65
2023-01-30T19:52:09.984Z,2.35
2023-01-30T19:54:37.865Z,1.48
2023-01-30T19:57:05.476Z,1.90
2023-01-30T19:59:34.568Z,1.45
2023-01-30T20:02:02.308Z,2.10
2023-01-30T20:04:29.937Z,1.10
2023-01-30T20:07:07.431Z,1.60
2023-01-30T20:09:37.602Z,2.40
2023-01-30T20:12:05.472Z,1.23
2023-01-30T20:14:33.379Z,1.88
2023-01-30T20:17:01.318Z,1.95
2023-01-30T20:19:29.956Z,2.03
2023-01-30T20:21:57.550Z,1.65
2023-01-30T20:24:25.163Z,1.73
2023-01-30T20:26:52.900Z,2.13
2023-01-30T20:29:21.487Z,2.08
2023-01-30T20:31:49.327Z,1.48
2023-01-30T20:34:20.295Z,1.73
2023-01-30T20:36:48.292Z,1.75
2023-01-30T20:39:17.050Z,1.75
2023-01-30T20:41:44.685Z,1.98
2023-01-30T20:44:15.995Z,1.73
2023-01-30T20:46:45.937Z,1.08
2023-01-30T20:49:18.764Z,1.30
2023-01-30T20:51:56.323Z,1.40
2023-01-30T20:54:26.609Z,2.13
2023-01-30T20:56:57.176Z,1.70
2023-01-30T20:59:27.228Z,1.98
2023-01-30T21:01:55.247Z,2.65
2023-01-30T21:04:24.903Z,1.73
2023-01-30T21:06:52.563Z,1.70
2023-01-30T21:09:25.940Z,2.55
2023-01-30T21:11:54.927Z,2.45
2023-01-30T21:14:23.007Z,2.13
2023-01-30T21:16:51.842Z,1.83
2023-01-30T21:19:20.378Z,1.63
2023-01-30T21:21:55.055Z,2.08
2023-01-30T21:26:56.602Z,2.03
2023-01-30T21:29:26.623Z,1.55
2023-01-30T21:31:55.890Z,1.92
2023-01-30T21:34:23.768Z,1.52
2023-01-30T21:37:10.249Z,2.80
2023-01-30T21:39:59.261Z,2.15
2023-01-30T21:42:45.532Z,1.80
2023-01-30T22:05:13.799Z,1.98
2023-01-30T22:14:15.807Z,1.30
2023-01-30T22:16:43.792Z,2.20
2023-01-30T22:19:12.997Z,2.08
2023-01-30T22:21:41.015Z,1.23
2023-01-30T22:24:12.904Z,2.00
2023-01-30T22:26:40.918Z,2.05
2023-01-30T22:29:09.038Z,2.28
2023-01-30T22:31:40.693Z,2.08
2023-01-30T22:34:09.150Z,2.05
2023-01-30T22:36:37.643Z,1.42
2023-01-30T22:39:06.221Z,1.88
2023-01-30T22:41:36.208Z,1.60
2023-01-30T22:44:07.739Z,2.20
2023-01-30T22:46:38.624Z,2.60
2023-01-30T22:49:10.963Z,1.48
2023-01-30T22:51:41.143Z,1.92
2023-01-30T22:54:17.226Z,1.35
2023-01-30T22:56:51.991Z,1.85
2023-01-30T23:01:50.597Z,1.25
2023-01-30T23:04:24.932Z,1.45
2023-01-30T23:06:57.305Z,1.88
2023-01-30T23:09:27.159Z,2.20
2023-01-30T23:12:15.885Z,1.80
2023-01-30T23:14:47.393Z,2.33
2023-01-30T23:17:33.346Z,0.85
2023-01-30T23:20:02.234Z,1.60
2023-01-30T23:22:32.158Z,1.65
2023-01-30T23:24:59.790Z,1.75
2023-01-30T23:27:27.370Z,1.80
2023-01-30T23:29:57.125Z,1.55
2023-01-30T23:32:26.105Z,1.05
2023-01-30T23:34:53.880Z,1.30
2023-01-30T23:37:43.451Z,1.42
2023-01-30T23:40:11.794Z,2.05
2023-01-30T23:42:39.972Z,1.77
2023-01-30T23:45:08.478Z,1.17
2023-01-30T23:47:38.909Z,2.30
2023-01-30T23:50:10.532Z,2.08
2023-01-30T23:52:40.643Z,1.95
2023-01-30T23:55:11.719Z,1.27
2023-01-30T23:57:39.786Z,2.58
